createdAt,value
2023-05-10T00:00:24.785Z,50.67
2023-05-10T00:02:51.990Z,49.53
2023-05-10T00:05:19.232Z,50.67
2023-05-10T00:07:46.119Z,54.80
2023-05-10T00:10:13.659Z,58.20
2023-05-10T00:12:40.667Z,60.42
2023-05-10T00:15:08.437Z,61.73
2023-05-10T00:17:35.733Z,70.18
2023-05-10T00:20:03.138Z,68.47
2023-05-10T00:22:30.140Z,70.93
2023-05-10T00:24:57.053Z,68.40
2023-05-10T00:27:23.896Z,69.53
2023-05-10T00:29:50.971Z,75.67
2023-05-10T00:32:18.042Z,83.55
2023-05-10T00:34:45.024Z,79.15
2023-05-10T00:37:12.413Z,80.35
2023-05-10T00:39:39.391Z,90.65
2023-05-10T00:42:06.362Z,80.07
2023-05-10T00:44:33.808Z,78.38
2023-05-10T00:47:00.767Z,76.47
2023-05-10T00:49:27.975Z,67.85
2023-05-10T00:51:55.013Z,73.18
2023-05-10T00:54:22.052Z,65.75
2023-05-10T00:56:50.349Z,74.60
2023-05-10T00:59:18.929Z,81.85
2023-05-10T01:01:49.130Z,91.90
2023-05-10T01:04:16.799Z,94.32
2023-05-10T01:06:44.673Z,99.17
2023-05-10T01:09:12.725Z,96.28
2023-05-10T01:11:41.185Z,93.22
2023-05-10T01:14:08.596Z,104.20
2023-05-10T01:16:39.911Z,101.57
2023-05-10T01:19:17.212Z,106.65
2023-05-10T01:21:49.955Z,99.05
2023-05-10T01:24:45.181Z,96.85
2023-05-10T01:27:35.310Z,92.45
2023-05-10T01:30:14.987Z,91.78
2023-05-10T01:33:01.121Z,92.57
2023-05-10T01:35:44.284Z,89.45
2023-05-10T01:38:30.622Z,91.30
2023-05-10T01:41:18.632Z,102.95
2023-05-10T01:44:10.854Z,95.70
2023-05-10T01:46:39.655Z,107.05
2023-05-10T01:49:14.432Z,107.00
2023-05-10T01:51:53.062Z,113.78
2023-05-10T01:54:22.601Z,119.00
2023-05-10T01:56:56.186Z,119.47
2023-05-10T01:59:25.953Z,118.68
2023-05-10T02:01:55.258Z,118.35
2023-05-10T02:04:24.645Z,117.67
2023-05-10T02:06:54.401Z,119.63
2023-05-10T02:09:22.673Z,117.45
2023-05-10T02:11:51.705Z,122.07
2023-05-10T02:14:20.747Z,103.60
2023-05-10T02:16:49.130Z,114.32
2023-05-10T02:19:18.101Z,111.88
2023-05-10T02:21:46.356Z,115.35
2023-05-10T02:24:15.358Z,117.22
2023-05-10T02:26:44.499Z,110.00
2023-05-10T02:29:13.561Z,115.05
2023-05-10T02:31:40.886Z,113.72
2023-05-10T02:34:09.426Z,123.13
2023-05-10T02:36:37.374Z,115.03
2023-05-10T02:39:10.476Z,105.53
2023-05-10T02:41:38.976Z,108.22
2023-05-10T02:44:08.861Z,107.55
2023-05-10T02:46:36.774Z,102.20
2023-05-10T02:49:03.809Z,96.60
2023-05-10T02:51:34.722Z,95.93
2023-05-10T02:54:34.908Z,90.27
2023-05-10T02:57:06.127Z,94.70
2023-05-10T02:59:33.746Z,81.97
2023-05-10T03:02:01.838Z,84.23
2023-05-10T03:04:28.820Z,82.07
2023-05-10T03:06:57.468Z,83.82
2023-05-10T03:09:24.507Z,80.95
2023-05-10T03:11:51.335Z,88.43
2023-05-10T03:14:31.884Z,88.17
2023-05-10T03:17:11.211Z,91.07
2023-05-10T03:19:58.835Z,91.15
2023-05-10T03:22:38.208Z,90.53
2023-05-10T03:25:09.303Z,90.93
2023-05-10T03:27:39.851Z,104.10
2023-05-10T03:30:09.612Z,96.47
2023-05-10T03:32:36.824Z,111.60
2023-05-10T03:35:11.426Z,97.82
2023-05-10T03:37:38.565Z,114.93
2023-05-10T03:40:07.314Z,100.75
2023-05-10T03:42:36.713Z,110.75
2023-05-10T03:45:04.093Z,113.78
2023-05-10T03:47:31.035Z,117.13
2023-05-10T03:49:58.958Z,119.15
2023-05-10T03:52:26.318Z,110.68
2023-05-10T03:54:53.228Z,110.38
2023-05-10T03:57:20.243Z,108.95
2023-05-10T03:59:47.217Z,109.25
2023-05-10T04:02:14.091Z,112.97
2023-05-10T04:04:41.004Z,109.83
2023-05-10T04:07:08.235Z,105.72
2023-05-10T04:09:35.089Z,110.25
2023-05-10T04:12:03.330Z,114.43
2023-05-10T04:14:30.336Z,106.97
2023-05-10T04:16:57.250Z,112.75
2023-05-10T04:19:24.640Z,118.50
2023-05-10T04:21:51.641Z,117.05
2023-05-10T04:24:18.457Z,110.47
2023-05-10T04:26:45.310Z,125.57
2023-05-10T04:29:12.284Z,124.38
2023-05-10T04:31:39.511Z,117.90
2023-05-10T04:34:06.758Z,119.68
2023-05-10T04:36:34.901Z,118.85
2023-05-10T04:39:01.828Z,121.93
2023-05-10T04:41:28.620Z,132.30
2023-05-10T04:43:55.919Z,125.35
2023-05-10T04:46:22.774Z,125.57
2023-05-10T04:48:49.633Z,130.98
2023-05-10T04:51:16.540Z,128.48
2023-05-10T04:53:48.589Z,120.55
2023-05-10T04:56:24.654Z,122.90
2023-05-10T04:58:51.602Z,124.90
2023-05-10T05:01:18.546Z,126.47
2023-05-10T05:03:45.631Z,134.30
2023-05-10T05:06:12.536Z,143.03
2023-05-10T05:08:39.421Z,136.63
2023-05-10T05:11:06.390Z,140.88
2023-05-10T05:13:33.210Z,145.77
2023-05-10T05:16:02.698Z,138.98
2023-05-10T05:18:30.073Z,133.90
2023-05-10T05:20:57.159Z,137.63
2023-05-10T05:23:25.904Z,133.18
2023-05-10T05:25:53.788Z,132.20
2023-05-10T05:28:21.501Z,122.53
2023-05-10T05:30:48.546Z,127.70
2023-05-10T05:33:16.482Z,122.22
2023-05-10T05:35:48.557Z,118.72
2023-05-10T05:38:15.544Z,129.25
2023-05-10T05:40:42.390Z,137.30
2023-05-10T05:43:09.385Z,145.65
2023-05-10T05:45:36.274Z,146.10
2023-05-10T05:48:03.342Z,137.77
2023-05-10T05:50:30.250Z,135.18
2023-05-10T05:52:58.380Z,146.40
2023-05-10T05:55:26.978Z,129.15
2023-05-10T05:57:54.805Z,126.28
2023-05-10T06:00:22.324Z,117.45
2023-05-10T06:02:49.357Z,114.13
2023-05-10T06:05:16.565Z,122.45
2023-05-10T06:07:43.795Z,135.63
2023-05-10T06:10:11.148Z,115.73
2023-05-10T06:12:38.043Z,117.85
2023-05-10T06:15:05.171Z,123.90
2023-05-10T06:17:32.296Z,124.22
2023-05-10T06:19:59.239Z,121.00
2023-05-10T06:22:26.247Z,119.95
2023-05-10T06:24:53.275Z,114.63
2023-05-10T06:27:20.109Z,105.63
2023-05-10T06:29:46.965Z,99.82
2023-05-10T06:32:13.855Z,96.45
2023-05-10T06:34:40.817Z,82.00
2023-05-10T06:37:07.714Z,72.28
2023-05-10T06:39:34.561Z,61.70
2023-05-10T06:42:02.765Z,59.00
2023-05-10T06:44:33.024Z,56.38
2023-05-10T06:46:59.970Z,52.67
2023-05-10T06:49:27.198Z,51.15
2023-05-10T06:51:54.413Z,47.50
2023-05-10T06:54:21.396Z,41.47
2023-05-10T06:56:48.362Z,45.00
2023-05-10T06:59:16.265Z,43.67
2023-05-10T07:01:43.728Z,41.90
2023-05-10T07:04:10.673Z,35.08
2023-05-10T07:06:37.664Z,31.92
2023-05-10T07:09:04.645Z,27.42
2023-05-10T07:11:31.637Z,28.40
2023-05-10T07:13:58.666Z,29.33
2023-05-10T07:16:25.706Z,28.85
2023-05-10T07:18:54.011Z,24.40
2023-05-10T07:21:21.061Z,25.52
2023-05-10T07:23:48.294Z,21.70
2023-05-10T07:26:15.931Z,18.00
2023-05-10T07:28:43.074Z,17.38
2023-05-10T07:31:10.051Z,15.55
2023-05-10T07:33:36.967Z,21.33
2023-05-10T07:36:03.919Z,17.23
2023-05-10T07:38:30.796Z,14.50
2023-05-10T07:40:58.054Z,16.25
2023-05-10T07:43:24.914Z,18.73
2023-05-10T07:45:53.925Z,26.65
2023-05-10T07:48:22.275Z,22.05
2023-05-10T07:50:49.079Z,26.13
2023-05-10T07:53:15.935Z,22.10
2023-05-10T07:55:42.771Z,23.13
2023-05-10T07:58:09.719Z,23.23
2023-05-10T08:00:36.591Z,19.80
2023-05-10T08:03:03.771Z,18.85
2023-05-10T08:05:30.768Z,16.40
2023-05-10T08:07:57.805Z,18.08
2023-05-10T08:10:25.949Z,16.08
2023-05-10T08:12:52.906Z,18.73
2023-05-10T08:15:19.981Z,15.40
2023-05-10T08:17:46.766Z,17.40
2023-05-10T08:20:15.031Z,16.50
2023-05-10T08:22:42.024Z,15.13
2023-05-10T08:25:09.179Z,17.83
2023-05-10T08:27:35.997Z,15.77
2023-05-10T08:30:02.966Z,16.70
2023-05-10T08:32:30.372Z,14.70
2023-05-10T08:34:57.313Z,15.32
2023-05-10T08:37:24.988Z,14.93
2023-05-10T08:39:51.785Z,13.02
2023-05-10T08:42:23.088Z,13.18
2023-05-10T08:44:50.914Z,14.27
2023-05-10T08:47:19.683Z,11.87
2023-05-10T08:49:52.351Z,15.23
2023-05-10T08:52:19.710Z,13.48
2023-05-10T08:54:46.678Z,12.70
2023-05-10T08:57:13.741Z,13.68
2023-05-10T08:59:40.896Z,15.00
2023-05-10T09:02:11.618Z,12.27
2023-05-10T09:04:38.534Z,10.95
2023-05-10T09:07:05.744Z,12.30
2023-05-10T09:09:32.882Z,12.70
2023-05-10T09:12:00.138Z,12.98
2023-05-10T09:14:27.666Z,11.88
2023-05-10T09:16:56.244Z,9.02
2023-05-10T09:19:23.429Z,9.03
2023-05-10T09:21:50.672Z,9.38
2023-05-10T09:24:17.539Z,9.38
2023-05-10T09:26:52.365Z,8.47
2023-05-10T09:29:19.437Z,8.57
2023-05-10T09:31:55.571Z,7.72
2023-05-10T09:34:33.493Z,6.60
2023-05-10T09:37:02.571Z,9.43
2023-05-10T09:39:37.721Z,7.85
2023-05-10T09:42:06.678Z,14.90
2023-05-10T09:44:34.865Z,11.13
2023-05-10T09:47:02.843Z,11.17
2023-05-10T09:49:30.420Z,7.90
2023-05-10T09:52:08.616Z,8.30
2023-05-10T09:54:36.049Z,5.20
2023-05-10T09:57:03.326Z,6.18
2023-05-10T09:59:31.267Z,12.45
2023-05-10T10:02:13.691Z,7.55
2023-05-10T10:05:00.646Z,6.07
2023-05-10T10:07:48.724Z,5.25
2023-05-10T10:10:30.306Z,5.57
2023-05-10T10:13:16.697Z,4.95
2023-05-10T10:15:54.822Z,6.85
2023-05-10T10:18:28.098Z,5.55
2023-05-10T10:20:56.498Z,6.18
2023-05-10T10:23:24.514Z,4.97
2023-05-10T10:25:53.019Z,4.22
2023-05-10T10:28:39.983Z,4.88
2023-05-10T10:31:33.681Z,4.90
2023-05-10T10:34:27.169Z,6.25
2023-05-10T10:36:55.646Z,6.20
2023-05-10T10:39:22.734Z,7.03
2023-05-10T10:41:57.891Z,5.28
2023-05-10T10:44:27.572Z,6.97
2023-05-10T10:47:07.196Z,6.05
2023-05-10T10:49:38.690Z,6.78
2023-05-10T10:52:21.845Z,7.47
2023-05-10T10:55:01.300Z,6.10
2023-05-10T10:57:31.340Z,7.00
2023-05-10T11:00:21.295Z,9.93
2023-05-10T11:02:50.229Z,6.28
2023-05-10T11:05:36.031Z,6.00
2023-05-10T11:08:29.163Z,6.90
2023-05-10T11:11:03.160Z,13.32
2023-05-10T11:13:40.797Z,7.55
2023-05-10T11:16:18.166Z,7.00
2023-05-10T11:19:08.892Z,8.00
2023-05-10T11:21:50.086Z,8.80
2023-05-10T11:24:23.726Z,7.25
2023-05-10T11:26:54.756Z,12.13
2023-05-10T11:29:21.843Z,8.27
2023-05-10T11:31:50.227Z,7.53
2023-05-10T11:34:32.232Z,5.22
2023-05-10T11:36:59.597Z,7.15
2023-05-10T11:39:34.499Z,7.88
2023-05-10T11:42:01.661Z,11.77
2023-05-10T11:44:35.568Z,15.57
2023-05-10T11:47:03.175Z,13.20
2023-05-10T11:49:30.413Z,15.47
2023-05-10T11:52:10.156Z,16.85
2023-05-10T11:54:37.180Z,10.35
2023-05-10T11:57:04.835Z,8.25
2023-05-10T11:59:32.090Z,8.95
2023-05-10T12:01:59.023Z,7.30
2023-05-10T12:04:26.734Z,7.70
2023-05-10T12:06:53.843Z,5.53
2023-05-10T12:09:31.481Z,8.07
2023-05-10T12:12:03.760Z,14.15
2023-05-10T12:14:34.786Z,3.90
2023-05-10T12:17:01.634Z,4.57
2023-05-10T12:19:28.746Z,3.33
2023-05-10T12:21:55.888Z,4.45
2023-05-10T12:24:22.833Z,10.50
2023-05-10T12:27:07.566Z,4.75
2023-05-10T12:29:34.421Z,5.38
2023-05-10T12:32:01.460Z,8.32
2023-05-10T12:34:32.083Z,7.78
2023-05-10T12:37:00.091Z,10.15
2023-05-10T12:39:27.137Z,9.37
2023-05-10T12:41:54.221Z,11.20
2023-05-10T12:44:21.194Z,9.80
2023-05-10T12:46:48.644Z,8.73
2023-05-10T12:49:15.797Z,10.82
2023-05-10T12:51:42.791Z,12.75
2023-05-10T12:54:09.711Z,9.90
2023-05-10T12:56:36.528Z,13.70
2023-05-10T12:59:03.382Z,11.95
2023-05-10T13:01:30.639Z,13.07
2023-05-10T13:03:57.601Z,13.20
2023-05-10T13:06:24.366Z,14.68
2023-05-10T13:08:51.257Z,10.82
2023-05-10T13:11:18.434Z,11.48
2023-05-10T13:13:45.634Z,11.03
2023-05-10T13:16:12.444Z,11.50
2023-05-10T13:18:39.406Z,11.13
2023-05-10T13:21:06.743Z,15.68
2023-05-10T13:23:33.760Z,12.23
2023-05-10T13:26:01.048Z,12.40
2023-05-10T13:28:28.138Z,12.40
2023-05-10T13:30:55.230Z,13.40
2023-05-10T13:33:22.254Z,11.32
2023-05-10T13:35:49.030Z,10.98
2023-05-10T13:38:15.967Z,10.65
2023-05-10T13:40:43.104Z,14.70
2023-05-10T13:43:10.040Z,13.40
2023-05-10T13:45:36.906Z,12.27
2023-05-10T13:48:03.999Z,16.90
2023-05-10T13:50:31.409Z,13.90
2023-05-10T13:52:58.361Z,16.92
2023-05-10T13:55:25.591Z,14.57
2023-05-10T13:57:52.805Z,18.30
2023-05-10T14:00:19.843Z,13.15
2023-05-10T14:02:47.000Z,13.73
2023-05-10T14:05:14.065Z,12.85
2023-05-10T14:07:41.085Z,15.15
2023-05-10T14:10:08.332Z,13.32
2023-05-10T14:12:35.106Z,14.82
2023-05-10T14:15:02.314Z,17.27
2023-05-10T14:17:29.624Z,16.92
2023-05-10T14:19:56.460Z,14.13
2023-05-10T14:22:23.640Z,14.32
2023-05-10T14:24:51.209Z,15.07
2023-05-10T14:27:18.033Z,13.48
2023-05-10T14:29:44.831Z,16.55
2023-05-10T14:32:11.898Z,15.38
2023-05-10T14:34:38.838Z,16.98
2023-05-10T14:37:05.718Z,12.97
2023-05-10T14:39:34.203Z,14.95
2023-05-10T14:42:00.967Z,14.65
2023-05-10T14:44:28.529Z,15.70
2023-05-10T14:46:56.239Z,13.38
2023-05-10T14:49:25.605Z,10.25
2023-05-10T14:51:53.007Z,10.93
2023-05-10T14:54:20.012Z,12.67
2023-05-10T14:56:47.086Z,12.65
2023-05-10T14:59:13.884Z,11.27
2023-05-10T15:01:43.202Z,13.90
2023-05-10T15:04:10.464Z,18.08
2023-05-10T15:06:37.930Z,12.57
2023-05-10T15:09:04.844Z,14.25
2023-05-10T15:11:31.786Z,13.02
2023-05-10T15:13:58.832Z,12.02
2023-05-10T15:16:26.143Z,12.93
2023-05-10T15:18:53.187Z,13.40
2023-05-10T15:21:19.992Z,11.83
2023-05-10T15:23:47.550Z,13.75
2023-05-10T15:26:14.582Z,14.23
2023-05-10T15:28:41.429Z,13.77
2023-05-10T15:31:08.526Z,22.90
2023-05-10T15:33:35.598Z,12.45
2023-05-10T15:36:02.441Z,17.42
2023-05-10T15:38:29.484Z,13.87
2023-05-10T15:40:58.939Z,17.08
2023-05-10T15:43:25.789Z,14.07
2023-05-10T15:45:52.790Z,17.25
2023-05-10T15:48:19.576Z,14.70
2023-05-10T15:50:46.464Z,13.30
2023-05-10T15:53:13.538Z,15.95
2023-05-10T15:55:40.478Z,16.83
2023-05-10T15:58:07.388Z,15.93
2023-05-10T16:00:34.527Z,13.73
2023-05-10T16:03:01.592Z,16.80
2023-05-10T16:05:32.642Z,17.15
2023-05-10T16:08:00.606Z,14.50
2023-05-10T16:10:27.996Z,17.80
2023-05-10T16:12:55.579Z,14.95
2023-05-10T16:15:22.777Z,13.87
2023-05-10T16:17:49.842Z,13.30
2023-05-10T16:20:17.059Z,15.02
2023-05-10T16:22:44.514Z,15.57
2023-05-10T16:25:13.505Z,11.00
2023-05-10T16:27:40.939Z,14.75
2023-05-10T16:30:08.837Z,14.38
2023-05-10T16:32:35.948Z,12.80
2023-05-10T16:35:03.435Z,10.23
2023-05-10T16:37:30.445Z,10.23
2023-05-10T16:39:57.305Z,12.68
2023-05-10T16:42:25.157Z,10.77
2023-05-10T16:44:52.018Z,11.27
2023-05-10T16:47:18.913Z,12.63
2023-05-10T16:49:46.029Z,13.02
2023-05-10T16:52:13.317Z,12.63
2023-05-10T16:54:40.390Z,13.52
2023-05-10T16:57:08.548Z,9.90
2023-05-10T16:59:35.589Z,10.18
2023-05-10T17:02:04.989Z,10.90
2023-05-10T17:04:33.763Z,9.63
2023-05-10T17:07:00.689Z,11.60
2023-05-10T17:09:27.548Z,10.07
2023-05-10T17:11:54.537Z,10.27
2023-05-10T17:14:21.485Z,11.77
2023-05-10T17:16:48.447Z,10.43
2023-05-10T17:19:15.425Z,11.70
2023-05-10T17:21:42.224Z,12.13
2023-05-10T17:24:09.141Z,12.00
2023-05-10T17:26:36.054Z,11.25
2023-05-10T17:29:03.543Z,12.07
2023-05-10T17:31:30.412Z,9.82
2023-05-10T17:33:57.364Z,9.93
2023-05-10T17:36:24.340Z,10.00
2023-05-10T17:38:51.595Z,12.98
2023-05-10T17:41:18.511Z,9.10
2023-05-10T17:43:45.420Z,10.45
2023-05-10T17:46:12.919Z,9.52
2023-05-10T17:48:39.893Z,13.02
2023-05-10T17:51:06.917Z,9.88
2023-05-10T17:53:35.259Z,10.43
2023-05-10T17:56:02.257Z,9.60
2023-05-10T17:58:29.228Z,9.13
2023-05-10T18:00:57.667Z,10.50
2023-05-10T18:03:24.688Z,11.23
2023-05-10T18:05:51.911Z,11.80
2023-05-10T18:08:22.729Z,11.63
2023-05-10T18:10:49.741Z,11.13
2023-05-10T18:13:16.883Z,10.63
2023-05-10T18:15:43.868Z,9.60
2023-05-10T18:18:11.116Z,10.85
2023-05-10T18:20:38.097Z,11.13
2023-05-10T18:23:05.110Z,12.05
2023-05-10T18:25:32.087Z,13.27
2023-05-10T18:27:59.143Z,11.30
2023-05-10T18:30:26.142Z,10.60
2023-05-10T18:32:53.835Z,12.85
2023-05-10T18:35:21.501Z,13.82
2023-05-10T18:37:49.561Z,12.90
2023-05-10T18:40:17.257Z,11.40
2023-05-10T18:42:46.599Z,14.57
2023-05-10T18:45:13.725Z,13.95
2023-05-10T18:47:40.611Z,15.17
2023-05-10T18:50:08.196Z,14.75
2023-05-10T18:52:36.825Z,13.45
2023-05-10T18:55:04.273Z,15.55
2023-05-10T18:57:31.666Z,14.68
2023-05-10T18:59:58.714Z,13.95
2023-05-10T19:02:26.752Z,12.43
2023-05-10T19:04:54.008Z,13.90
2023-05-10T19:07:20.906Z,15.10
2023-05-10T19:09:47.817Z,17.50
2023-05-10T19:12:14.966Z,14.60
2023-05-10T19:14:41.860Z,13.30
2023-05-10T19:17:08.710Z,19.00
2023-05-10T19:19:36.625Z,15.95
2023-05-10T19:22:03.634Z,20.77
2023-05-10T19:24:30.623Z,19.58
2023-05-10T19:26:57.945Z,16.58
2023-05-10T19:29:24.998Z,17.25
2023-05-10T19:31:52.466Z,19.20
2023-05-10T19:34:20.468Z,18.90
2023-05-10T19:36:47.448Z,18.13
2023-05-10T19:39:14.422Z,18.77
2023-05-10T19:41:41.484Z,17.73
2023-05-10T19:44:08.339Z,18.55
2023-05-10T19:46:35.287Z,25.35
2023-05-10T19:49:02.421Z,19.42
2023-05-10T19:51:29.327Z,19.48
2023-05-10T19:53:56.099Z,23.95
2023-05-10T19:56:23.184Z,18.00
2023-05-10T19:58:50.156Z,20.27
2023-05-10T20:01:17.191Z,23.88
2023-05-10T20:03:44.096Z,20.95
2023-05-10T20:06:11.080Z,18.83
2023-05-10T20:08:38.041Z,21.70
2023-05-10T20:11:05.099Z,22.63
2023-05-10T20:13:32.148Z,25.45
2023-05-10T20:15:59.852Z,22.38
2023-05-10T20:18:27.388Z,21.15
2023-05-10T20:20:55.401Z,23.85
2023-05-10T20:23:22.488Z,22.98
2023-05-10T20:25:49.690Z,23.33
2023-05-10T20:28:20.869Z,25.00
2023-05-10T20:30:47.746Z,25.58
2023-05-10T20:33:15.877Z,29.33
2023-05-10T20:35:42.828Z,25.48
2023-05-10T20:38:09.640Z,24.90
2023-05-10T20:40:36.761Z,26.83
2023-05-10T20:43:05.524Z,25.67
2023-05-10T20:45:32.866Z,28.27
2023-05-10T20:48:00.447Z,25.23
2023-05-10T20:50:27.656Z,25.88
2023-05-10T20:52:54.592Z,27.13
2023-05-10T20:55:21.608Z,31.98
2023-05-10T20:57:48.438Z,27.70
2023-05-10T21:00:15.849Z,28.08
2023-05-10T21:02:44.701Z,28.67
2023-05-10T21:05:11.773Z,27.83
2023-05-10T21:07:39.428Z,27.08
2023-05-10T21:10:11.319Z,32.65
2023-05-10T21:12:38.146Z,27.55
2023-05-10T21:15:05.330Z,29.17
2023-05-10T21:17:32.506Z,29.73
2023-05-10T21:19:59.351Z,27.83
2023-05-10T21:22:26.917Z,27.38
2023-05-10T21:24:54.039Z,29.35
2023-05-10T21:27:20.950Z,28.95
2023-05-10T21:29:47.814Z,29.92
2023-05-10T21:32:15.110Z,28.75
2023-05-10T21:34:42.092Z,28.75
2023-05-10T21:37:09.205Z,28.45
2023-05-10T21:39:36.472Z,26.30
2023-05-10T21:42:03.866Z,26.10
2023-05-10T21:44:31.853Z,29.67
2023-05-10T21:46:58.796Z,28.90
2023-05-10T21:49:25.725Z,28.58
2023-05-10T21:51:52.748Z,29.25
2023-05-10T21:54:19.704Z,32.45
2023-05-10T21:56:46.688Z,31.25
2023-05-10T21:59:13.899Z,30.40
2023-05-10T22:01:41.293Z,29.33
2023-05-10T22:04:08.158Z,31.20
2023-05-10T22:06:35.589Z,29.75
2023-05-10T22:09:02.511Z,30.48
2023-05-10T22:11:29.346Z,29.55
2023-05-10T22:13:56.259Z,30.40
2023-05-10T22:16:23.201Z,32.40
2023-05-10T22:18:50.144Z,27.42
2023-05-10T22:21:17.069Z,30.20
2023-05-10T22:23:43.973Z,27.73
2023-05-10T22:26:11.038Z,28.67
2023-05-10T22:28:37.928Z,30.65
2023-05-10T22:31:10.496Z,30.17
2023-05-10T22:33:37.652Z,31.73
2023-05-10T22:36:05.154Z,26.67
2023-05-10T22:38:32.091Z,27.38
2023-05-10T22:40:58.956Z,32.45
2023-05-10T22:43:25.921Z,31.88
2023-05-10T22:45:53.259Z,33.35
2023-05-10T22:48:20.903Z,32.22
2023-05-10T22:50:47.767Z,27.63
2023-05-10T22:53:14.630Z,25.50
2023-05-10T22:55:41.736Z,25.47
2023-05-10T22:58:08.723Z,27.67
2023-05-10T23:00:35.670Z,29.17
2023-05-10T23:03:02.727Z,27.27
2023-05-10T23:05:29.742Z,27.23
2023-05-10T23:07:56.737Z,26.33
2023-05-10T23:10:23.744Z,30.17
2023-05-10T23:12:50.680Z,26.05
2023-05-10T23:15:17.630Z,26.77
2023-05-10T23:17:44.628Z,28.55
2023-05-10T23:20:12.255Z,25.10
2023-05-10T23:22:39.430Z,25.95
2023-05-10T23:25:06.977Z,24.08
2023-05-10T23:27:33.978Z,26.88
2023-05-10T23:30:01.643Z,27.73
2023-05-10T23:32:28.488Z,25.77
2023-05-10T23:34:55.517Z,26.73
2023-05-10T23:37:22.398Z,28.37
2023-05-10T23:39:49.265Z,32.20
2023-05-10T23:42:16.506Z,31.15
2023-05-10T23:44:43.487Z,30.80
2023-05-10T23:47:10.388Z,31.02
2023-05-10T23:49:38.144Z,31.38
2023-05-10T23:52:05.034Z,30.90
2023-05-10T23:54:31.920Z,28.80
2023-05-10T23:56:58.896Z,29.55
2023-05-10T23:59:25.971Z,26.98
